sensor_id;sensor_type;location;lat;lon;timestamp;temperature;humidity
2625;DHT22;1322;53.256;10.386;2023-03-11T00:00:57;1.30;99.90
2625;DHT22;1322;53.256;10.386;2023-03-11T00:03:23;1.30;99.90
2625;DHT22;1322;53.256;10.386;2023-03-11T00:05:50;1.30;99.90
2625;DHT22;1322;53.256;10.386;2023-03-11T00:08:19;1.30;99.90
2625;DHT22;1322;53.256;10.386;2023-03-11T00:10:46;1.30;99.90
2625;DHT22;1322;53.256;10.386;2023-03-11T00:13:14;1.30;99.90
2625;DHT22;1322;53.256;10.386;2023-03-11T00:15:41;1.30;99.90
2625;DHT22;1322;53.256;10.386;2023-03-11T00:18:08;1.40;99.90
2625;DHT22;1322;53.256;10.386;2023-03-11T00:20:36;1.40;99.90
2625;DHT22;1322;53.256;10.386;2023-03-11T00:23:04;1.40;99.90
2625;DHT22;1322;53.256;10.386;2023-03-11T00:25:31;1.30;99.90
2625;DHT22;1322;53.256;10.386;2023-03-11T00:27:58;1.40;99.90
2625;DHT22;1322;53.256;10.386;2023-03-11T00:30:24;1.40;99.90
2625;DHT22;1322;53.256;10.386;2023-03-11T00:32:51;1.40;99.90
2625;DHT22;1322;53.256;10.386;2023-03-11T00:35:23;1.40;99.90
2625;DHT22;1322;53.256;10.386;2023-03-11T00:37:52;1.40;99.90
2625;DHT22;1322;53.256;10.386;2023-03-11T00:40:19;1.40;99.90
2625;DHT22;1322;53.256;10.386;2023-03-11T00:42:46;1.40;99.90
2625;DHT22;1322;53.256;10.386;2023-03-11T00:45:12;1.30;99.90
2625;DHT22;1322;53.256;10.386;2023-03-11T00:47:38;1.40;99.90
2625;DHT22;1322;53.256;10.386;2023-03-11T00:50:05;1.30;99.90
2625;DHT22;1322;53.256;10.386;2023-03-11T00:52:32;1.30;99.90
2625;DHT22;1322;53.256;10.386;2023-03-11T00:54:58;1.30;99.90
2625;DHT22;1322;53.256;10.386;2023-03-11T00:57:24;1.30;99.90
2625;DHT22;1322;53.256;10.386;2023-03-11T00:59:51;1.30;99.90
2625;DHT22;1322;53.256;10.386;2023-03-11T01:02:17;1.40;99.90
2625;DHT22;1322;53.256;10.386;2023-03-11T01:04:43;1.40;99.90
2625;DHT22;1322;53.256;10.386;2023-03-11T01:07:09;1.30;99.90
2625;DHT22;1322;53.256;10.386;2023-03-11T01:09:34;1.40;99.90
2625;DHT22;1322;53.256;10.386;2023-03-11T01:12:00;1.40;99.90
2625;DHT22;1322;53.256;10.386;2023-03-11T01:14:25;1.40;99.90
2625;DHT22;1322;53.256;10.386;2023-03-11T01:16:51;1.40;99.90
2625;DHT22;1322;53.256;10.386;2023-03-11T01:19:18;1.40;99.90
2625;DHT22;1322;53.256;10.386;2023-03-11T01:21:43;1.40;99.90
2625;DHT22;1322;53.256;10.386;2023-03-11T01:24:09;1.40;99.90
2625;DHT22;1322;53.256;10.386;2023-03-11T01:26:35;1.50;99.90
2625;DHT22;1322;53.256;10.386;2023-03-11T01:29:00;1.50;99.90
2625;DHT22;1322;53.256;10.386;2023-03-11T01:31:26;1.40;99.90
2625;DHT22;1322;53.256;10.386;2023-03-11T01:33:51;1.50;99.90
2625;DHT22;1322;53.256;10.386;2023-03-11T01:36:17;1.50;99.90
2625;DHT22;1322;53.256;10.386;2023-03-11T01:38:43;1.50;99.90
2625;DHT22;1322;53.256;10.386;2023-03-11T01:41:10;1.40;99.90
2625;DHT22;1322;53.256;10.386;2023-03-11T01:48:39;1.40;99.90
2625;DHT22;1322;53.256;10.386;2023-03-11T01:51:07;1.40;99.90
2625;DHT22;1322;53.256;10.386;2023-03-11T01:53:33;1.40;99.90
2625;DHT22;1322;53.256;10.386;2023-03-11T01:56:01;1.40;99.90
2625;DHT22;1322;53.256;10.386;2023-03-11T01:58:33;1.40;99.90
2625;DHT22;1322;53.256;10.386;2023-03-11T02:01:00;1.50;99.90
2625;DHT22;1322;53.256;10.386;2023-03-11T02:03:32;1.50;99.90
2625;DHT22;1322;53.256;10.386;2023-03-11T02:06:04;1.50;99.90
2625;DHT22;1322;53.256;10.386;2023-03-11T02:08:31;1.50;99.90
2625;DHT22;1322;53.256;10.386;2023-03-11T02:11:02;1.50;99.90
2625;DHT22;1322;53.256;10.386;2023-03-11T02:13:31;1.50;99.90
2625;DHT22;1322;53.256;10.386;2023-03-11T02:15:59;1.50;99.90
2625;DHT22;1322;53.256;10.386;2023-03-11T02:18:25;1.50;99.90
2625;DHT22;1322;53.256;10.386;2023-03-11T02:23:33;1.50;99.90
2625;DHT22;1322;53.256;10.386;2023-03-11T02:26:10;1.50;99.90
2625;DHT22;1322;53.256;10.386;2023-03-11T02:28:39;1.40;99.90
2625;DHT22;1322;53.256;10.386;2023-03-11T02:31:06;1.50;99.90
2625;DHT22;1322;53.256;10.386;2023-03-11T02:33:33;1.40;99.90
2625;DHT22;1322;53.256;10.386;2023-03-11T02:36:00;1.50;99.90
2625;DHT22;1322;53.256;10.386;2023-03-11T02:38:25;1.50;99.90
2625;DHT22;1322;53.256;10.386;2023-03-11T02:40:58;1.50;99.90
2625;DHT22;1322;53.256;10.386;2023-03-11T02:43:33;1.60;99.90
2625;DHT22;1322;53.256;10.386;2023-03-11T02:46:01;1.60;99.90
2625;DHT22;1322;53.256;10.386;2023-03-11T02:48:29;1.60;99.90
2625;DHT22;1322;53.256;10.386;2023-03-11T02:50:55;1.60;99.90
2625;DHT22;1322;53.256;10.386;2023-03-11T02:53:21;1.60;99.90
2625;DHT22;1322;53.256;10.386;2023-03-11T02:55:47;1.50;99.90
2625;DHT22;1322;53.256;10.386;2023-03-11T02:58:13;1.50;99.90
2625;DHT22;1322;53.256;10.386;2023-03-11T03:00:38;1.60;99.90
2625;DHT22;1322;53.256;10.386;2023-03-11T03:03:04;1.50;99.90
2625;DHT22;1322;53.256;10.386;2023-03-11T03:05:30;1.50;99.90
2625;DHT22;1322;53.256;10.386;2023-03-11T03:07:56;1.60;99.90
2625;DHT22;1322;53.256;10.386;2023-03-11T03:10:22;1.60;99.90
2625;DHT22;1322;53.256;10.386;2023-03-11T03:12:47;1.60;99.90
2625;DHT22;1322;53.256;10.386;2023-03-11T03:15:13;1.60;99.90
2625;DHT22;1322;53.256;10.386;2023-03-11T03:17:40;1.60;99.90
2625;DHT22;1322;53.256;10.386;2023-03-11T03:20:07;1.60;99.90
2625;DHT22;1322;53.256;10.386;2023-03-11T03:22:36;1.50;99.90
2625;DHT22;1322;53.256;10.386;2023-03-11T03:25:02;1.50;99.90
2625;DHT22;1322;53.256;10.386;2023-03-11T03:27:28;1.50;99.90
2625;DHT22;1322;53.256;10.386;2023-03-11T03:29:53;1.60;99.90
2625;DHT22;1322;53.256;10.386;2023-03-11T03:32:19;1.60;99.90
2625;DHT22;1322;53.256;10.386;2023-03-11T03:34:44;1.60;99.90
2625;DHT22;1322;53.256;10.386;2023-03-11T03:37:10;1.60;99.90
2625;DHT22;1322;53.256;10.386;2023-03-11T03:39:36;1.60;99.90
2625;DHT22;1322;53.256;10.386;2023-03-11T03:42:01;1.60;99.90
2625;DHT22;1322;53.256;10.386;2023-03-11T03:44:27;1.60;99.90
2625;DHT22;1322;53.256;10.386;2023-03-11T03:46:54;1.60;99.90
2625;DHT22;1322;53.256;10.386;2023-03-11T03:49:20;1.60;99.90
2625;DHT22;1322;53.256;10.386;2023-03-11T03:51:46;1.60;99.90
2625;DHT22;1322;53.256;10.386;2023-03-11T03:54:11;1.60;99.90
2625;DHT22;1322;53.256;10.386;2023-03-11T03:56:37;1.50;99.90
2625;DHT22;1322;53.256;10.386;2023-03-11T03:59:03;1.50;99.90
2625;DHT22;1322;53.256;10.386;2023-03-11T04:01:29;1.50;99.90
2625;DHT22;1322;53.256;10.386;2023-03-11T04:03:54;1.50;99.90
2625;DHT22;1322;53.256;10.386;2023-03-11T04:06:25;1.50;99.90
2625;DHT22;1322;53.256;10.386;2023-03-11T04:08:52;1.50;99.90
2625;DHT22;1322;53.256;10.386;2023-03-11T04:11:18;1.50;99.90
2625;DHT22;1322;53.256;10.386;2023-03-11T04:13:43;1.50;99.90
2625;DHT22;1322;53.256;10.386;2023-03-11T04:16:19;1.50;99.90
2625;DHT22;1322;53.256;10.386;2023-03-11T04:18:45;1.40;99.90
2625;DHT22;1322;53.256;10.386;2023-03-11T04:21:11;1.40;99.90
2625;DHT22;1322;53.256;10.386;2023-03-11T04:23:37;1.40;99.90
2625;DHT22;1322;53.256;10.386;2023-03-11T04:26:02;1.40;99.90
2625;DHT22;1322;53.256;10.386;2023-03-11T04:28:31;1.40;99.90
2625;DHT22;1322;53.256;10.386;2023-03-11T04:30:57;1.40;99.90
2625;DHT22;1322;53.256;10.386;2023-03-11T04:33:22;1.30;99.90
2625;DHT22;1322;53.256;10.386;2023-03-11T04:35:48;1.40;99.90
2625;DHT22;1322;53.256;10.386;2023-03-11T04:38:14;1.50;99.90
2625;DHT22;1322;53.256;10.386;2023-03-11T04:40:42;1.30;99.90
2625;DHT22;1322;53.256;10.386;2023-03-11T04:43:08;1.30;99.90
2625;DHT22;1322;53.256;10.386;2023-03-11T04:45:33;1.30;99.90
2625;DHT22;1322;53.256;10.386;2023-03-11T04:48:02;1.30;99.90
2625;DHT22;1322;53.256;10.386;2023-03-11T04:50:27;1.30;99.90
2625;DHT22;1322;53.256;10.386;2023-03-11T04:52:53;1.30;99.90
2625;DHT22;1322;53.256;10.386;2023-03-11T04:55:19;1.30;99.90
2625;DHT22;1322;53.256;10.386;2023-03-11T04:57:44;1.40;99.90
2625;DHT22;1322;53.256;10.386;2023-03-11T05:00:11;1.40;99.90
2625;DHT22;1322;53.256;10.386;2023-03-11T05:02:38;1.40;99.90
2625;DHT22;1322;53.256;10.386;2023-03-11T05:05:05;1.40;99.90
2625;DHT22;1322;53.256;10.386;2023-03-11T05:07:31;1.40;99.90
2625;DHT22;1322;53.256;10.386;2023-03-11T05:09:57;1.30;99.90
2625;DHT22;1322;53.256;10.386;2023-03-11T05:12:22;1.30;99.90
2625;DHT22;1322;53.256;10.386;2023-03-11T05:14:48;1.40;99.90
2625;DHT22;1322;53.256;10.386;2023-03-11T05:17:14;1.30;99.90
2625;DHT22;1322;53.256;10.386;2023-03-11T05:19:40;1.20;99.90
2625;DHT22;1322;53.256;10.386;2023-03-11T05:22:06;1.30;99.90
2625;DHT22;1322;53.256;10.386;2023-03-11T05:24:32;1.30;99.90
2625;DHT22;1322;53.256;10.386;2023-03-11T05:26:58;1.30;99.90
2625;DHT22;1322;53.256;10.386;2023-03-11T05:29:24;1.30;99.90
2625;DHT22;1322;53.256;10.386;2023-03-11T05:31:50;1.40;99.90
2625;DHT22;1322;53.256;10.386;2023-03-11T05:34:16;1.40;99.90
2625;DHT22;1322;53.256;10.386;2023-03-11T05:36:42;1.30;99.90
2625;DHT22;1322;53.256;10.386;2023-03-11T05:39:08;1.30;99.90
2625;DHT22;1322;53.256;10.386;2023-03-11T05:41:34;1.40;99.90
2625;DHT22;1322;53.256;10.386;2023-03-11T05:43:59;1.40;99.90
2625;DHT22;1322;53.256;10.386;2023-03-11T05:46:25;1.30;99.90
2625;DHT22;1322;53.256;10.386;2023-03-11T05:48:51;1.30;99.90
2625;DHT22;1322;53.256;10.386;2023-03-11T05:51:16;1.30;99.90
2625;DHT22;1322;53.256;10.386;2023-03-11T05:53:44;1.30;99.90
2625;DHT22;1322;53.256;10.386;2023-03-11T05:56:18;1.30;99.90
2625;DHT22;1322;53.256;10.386;2023-03-11T05:58:45;1.30;99.90
2625;DHT22;1322;53.256;10.386;2023-03-11T06:01:13;1.30;99.90
2625;DHT22;1322;53.256;10.386;2023-03-11T06:03:39;1.30;99.90
2625;DHT22;1322;53.256;10.386;2023-03-11T06:06:07;1.20;99.90
2625;DHT22;1322;53.256;10.386;2023-03-11T06:08:34;1.20;99.90
2625;DHT22;1322;53.256;10.386;2023-03-11T06:11:01;1.10;99.90
2625;DHT22;1322;53.256;10.386;2023-03-11T06:13:26;1.10;99.90
2625;DHT22;1322;53.256;10.386;2023-03-11T06:15:52;1.10;99.90
2625;DHT22;1322;53.256;10.386;2023-03-11T06:18:17;1.20;99.90
2625;DHT22;1322;53.256;10.386;2023-03-11T06:20:43;1.30;99.90
2625;DHT22;1322;53.256;10.386;2023-03-11T06:23:09;1.30;99.90
2625;DHT22;1322;53.256;10.386;2023-03-11T06:25:34;1.30;99.90
2625;DHT22;1322;53.256;10.386;2023-03-11T06:28:00;1.30;99.90
2625;DHT22;1322;53.256;10.386;2023-03-11T06:30:25;1.30;99.90
2625;DHT22;1322;53.256;10.386;2023-03-11T06:32:51;1.30;99.90
2625;DHT22;1322;53.256;10.386;2023-03-11T06:35:17;1.30;99.90
2625;DHT22;1322;53.256;10.386;2023-03-11T06:37:42;1.30;99.90
2625;DHT22;1322;53.256;10.386;2023-03-11T06:40:09;1.30;99.90
2625;DHT22;1322;53.256;10.386;2023-03-11T06:42:35;1.30;99.90
2625;DHT22;1322;53.256;10.386;2023-03-11T06:45:01;1.30;99.90
2625;DHT22;1322;53.256;10.386;2023-03-11T06:47:27;1.40;99.90
2625;DHT22;1322;53.256;10.386;2023-03-11T06:49:52;1.40;99.90
2625;DHT22;1322;53.256;10.386;2023-03-11T06:52:18;1.50;99.90
2625;DHT22;1322;53.256;10.386;2023-03-11T06:54:44;1.50;99.90
2625;DHT22;1322;53.256;10.386;2023-03-11T06:57:10;1.50;99.90
2625;DHT22;1322;53.256;10.386;2023-03-11T06:59:36;1.60;99.90
2625;DHT22;1322;53.256;10.386;2023-03-11T07:02:03;1.70;99.90
2625;DHT22;1322;53.256;10.386;2023-03-11T07:04:29;1.80;99.90
2625;DHT22;1322;53.256;10.386;2023-03-11T07:06:55;1.80;99.90
2625;DHT22;1322;53.256;10.386;2023-03-11T07:09:21;1.90;99.90
2625;DHT22;1322;53.256;10.386;2023-03-11T07:11:52;1.90;99.90
2625;DHT22;1322;53.256;10.386;2023-03-11T07:14:18;1.80;99.90
2625;DHT22;1322;53.256;10.386;2023-03-11T07:16:44;1.90;99.90
2625;DHT22;1322;53.256;10.386;2023-03-11T07:19:10;2.00;99.90
2625;DHT22;1322;53.256;10.386;2023-03-11T07:21:36;2.10;99.90
2625;DHT22;1322;53.256;10.386;2023-03-11T07:24:03;2.10;99.90
2625;DHT22;1322;53.256;10.386;2023-03-11T07:26:30;2.10;99.90
2625;DHT22;1322;53.256;10.386;2023-03-11T07:28:56;2.10;99.90
2625;DHT22;1322;53.256;10.386;2023-03-11T07:31:24;2.10;99.90
2625;DHT22;1322;53.256;10.386;2023-03-11T07:33:50;2.10;99.90
2625;DHT22;1322;53.256;10.386;2023-03-11T07:36:18;2.10;99.90
2625;DHT22;1322;53.256;10.386;2023-03-11T07:38:45;2.10;99.90
2625;DHT22;1322;53.256;10.386;2023-03-11T07:41:12;2.20;99.90
2625;DHT22;1322;53.256;10.386;2023-03-11T07:43:39;2.20;99.90
2625;DHT22;1322;53.256;10.386;2023-03-11T07:46:06;2.20;99.90
2625;DHT22;1322;53.256;10.386;2023-03-11T07:48:33;2.30;99.90
2625;DHT22;1322;53.256;10.386;2023-03-11T07:53:45;2.30;99.90
2625;DHT22;1322;53.256;10.386;2023-03-11T07:56:13;2.20;99.90
2625;DHT22;1322;53.256;10.386;2023-03-11T07:58:39;2.20;99.90
2625;DHT22;1322;53.256;10.386;2023-03-11T08:01:13;2.10;99.90
2625;DHT22;1322;53.256;10.386;2023-03-11T08:03:44;2.10;99.90
2625;DHT22;1322;53.256;10.386;2023-03-11T08:06:15;2.10;99.90
2625;DHT22;1322;53.256;10.386;2023-03-11T08:08:41;2.00;99.90
2625;DHT22;1322;53.256;10.386;2023-03-11T08:11:07;2.10;99.90
2625;DHT22;1322;53.256;10.386;2023-03-11T08:13:33;2.10;99.90
2625;DHT22;1322;53.256;10.386;2023-03-11T08:15:58;2.10;99.90
2625;DHT22;1322;53.256;10.386;2023-03-11T08:18:27;2.10;99.90
2625;DHT22;1322;53.256;10.386;2023-03-11T08:20:52;2.10;99.90
2625;DHT22;1322;53.256;10.386;2023-03-11T08:23:19;2.10;99.90
2625;DHT22;1322;53.256;10.386;2023-03-11T08:25:45;2.10;99.90
2625;DHT22;1322;53.256;10.386;2023-03-11T08:28:11;2.10;99.90
2625;DHT22;1322;53.256;10.386;2023-03-11T08:30:37;2.10;99.90
2625;DHT22;1322;53.256;10.386;2023-03-11T08:33:03;2.10;99.90
2625;DHT22;1322;53.256;10.386;2023-03-11T08:35:29;2.10;99.90
2625;DHT22;1322;53.256;10.386;2023-03-11T08:37:55;2.20;99.90
2625;DHT22;1322;53.256;10.386;2023-03-11T08:40:21;2.10;99.90
2625;DHT22;1322;53.256;10.386;2023-03-11T08:42:47;2.20;99.90
2625;DHT22;1322;53.256;10.386;2023-03-11T08:45:14;2.30;99.90
2625;DHT22;1322;53.256;10.386;2023-03-11T08:47:40;2.30;99.90
2625;DHT22;1322;53.256;10.386;2023-03-11T08:50:11;2.40;99.90
2625;DHT22;1322;53.256;10.386;2023-03-11T08:52:37;2.40;99.90
2625;DHT22;1322;53.256;10.386;2023-03-11T08:55:03;2.40;99.90
2625;DHT22;1322;53.256;10.386;2023-03-11T08:57:30;2.40;99.90
2625;DHT22;1322;53.256;10.386;2023-03-11T08:59:56;2.40;99.90
2625;DHT22;1322;53.256;10.386;2023-03-11T09:02:23;2.50;99.90
2625;DHT22;1322;53.256;10.386;2023-03-11T09:04:49;2.50;99.90
2625;DHT22;1322;53.256;10.386;2023-03-11T09:07:15;2.40;99.90
2625;DHT22;1322;53.256;10.386;2023-03-11T09:09:41;2.50;99.90
2625;DHT22;1322;53.256;10.386;2023-03-11T09:12:07;2.40;99.90
2625;DHT22;1322;53.256;10.386;2023-03-11T09:14:33;2.40;99.90
2625;DHT22;1322;53.256;10.386;2023-03-11T09:16:59;2.50;99.90
2625;DHT22;1322;53.256;10.386;2023-03-11T09:19:25;2.60;99.90
2625;DHT22;1322;53.256;10.386;2023-03-11T09:21:51;2.60;99.90
2625;DHT22;1322;53.256;10.386;2023-03-11T09:24:16;2.60;99.90
2625;DHT22;1322;53.256;10.386;2023-03-11T09:26:42;2.60;99.90
2625;DHT22;1322;53.256;10.386;2023-03-11T09:29:07;2.70;99.90
2625;DHT22;1322;53.256;10.386;2023-03-11T09:31:33;2.60;99.90
2625;DHT22;1322;53.256;10.386;2023-03-11T09:33:59;2.50;99.90
2625;DHT22;1322;53.256;10.386;2023-03-11T09:36:24;2.60;99.90
2625;DHT22;1322;53.256;10.386;2023-03-11T09:38:50;2.60;99.90
2625;DHT22;1322;53.256;10.386;2023-03-11T09:43:46;2.60;99.90
2625;DHT22;1322;53.256;10.386;2023-03-11T09:46:31;2.60;99.90
2625;DHT22;1322;53.256;10.386;2023-03-11T09:49:39;2.60;99.90
2625;DHT22;1322;53.256;10.386;2023-03-11T09:52:22;2.60;99.90
2625;DHT22;1322;53.256;10.386;2023-03-11T09:54:52;2.70;99.90
2625;DHT22;1322;53.256;10.386;2023-03-11T09:57:25;2.70;99.90
2625;DHT22;1322;53.256;10.386;2023-03-11T09:59:54;2.60;99.90
2625;DHT22;1322;53.256;10.386;2023-03-11T10:02:22;2.70;99.90
2625;DHT22;1322;53.256;10.386;2023-03-11T10:07:42;2.70;99.90
2625;DHT22;1322;53.256;10.386;2023-03-11T10:10:13;2.70;99.90
2625;DHT22;1322;53.256;10.386;2023-03-11T10:13:02;2.70;99.90
2625;DHT22;1322;53.256;10.386;2023-03-11T10:15:39;2.80;99.90
2625;DHT22;1322;53.256;10.386;2023-03-11T10:26:48;2.90;99.90
2625;DHT22;1322;53.256;10.386;2023-03-11T10:29:22;2.90;99.90
2625;DHT22;1322;53.256;10.386;2023-03-11T10:32:51;2.90;99.90
2625;DHT22;1322;53.256;10.386;2023-03-11T10:35:05;2.90;99.90
2625;DHT22;1322;53.256;10.386;2023-03-11T10:37:41;3.00;99.90
2625;DHT22;1322;53.256;10.386;2023-03-11T10:40:44;3.00;99.90
2625;DHT22;1322;53.256;10.386;2023-03-11T10:43:25;3.00;99.90
2625;DHT22;1322;53.256;10.386;2023-03-11T10:45:52;2.90;99.90
2625;DHT22;1322;53.256;10.386;2023-03-11T10:48:19;2.90;99.90
2625;DHT22;1322;53.256;10.386;2023-03-11T10:53:30;2.90;99.90
2625;DHT22;1322;53.256;10.386;2023-03-11T10:55:57;2.90;99.90
2625;DHT22;1322;53.256;10.386;2023-03-11T10:58:25;2.90;99.90
2625;DHT22;1322;53.256;10.386;2023-03-11T11:01:10;3.00;99.90
2625;DHT22;1322;53.256;10.386;2023-03-11T11:03:41;3.10;99.90
2625;DHT22;1322;53.256;10.386;2023-03-11T11:11:32;3.10;99.90
2625;DHT22;1322;53.256;10.386;2023-03-11T11:14:00;3.10;99.90
2625;DHT22;1322;53.256;10.386;2023-03-11T11:16:26;3.20;99.90
2625;DHT22;1322;53.256;10.386;2023-03-11T11:21:34;3.30;99.90
2625;DHT22;1322;53.256;10.386;2023-03-11T11:26:27;3.50;99.90
2625;DHT22;1322;53.256;10.386;2023-03-11T11:31:44;3.50;99.90
2625;DHT22;1322;53.256;10.386;2023-03-11T11:34:29;3.50;99.90
2625;DHT22;1322;53.256;10.386;2023-03-11T11:36:57;3.60;99.90
2625;DHT22;1322;53.256;10.386;2023-03-11T11:39:26;3.60;99.90
2625;DHT22;1322;53.256;10.386;2023-03-11T11:41:52;3.60;99.90
2625;DHT22;1322;53.256;10.386;2023-03-11T11:44:20;3.80;99.90
2625;DHT22;1322;53.256;10.386;2023-03-11T11:46:54;3.80;99.90
2625;DHT22;1322;53.256;10.386;2023-03-11T11:49:27;3.90;99.90
2625;DHT22;1322;53.256;10.386;2023-03-11T11:52:18;3.90;99.90
2625;DHT22;1322;53.256;10.386;2023-03-11T11:54:52;4.00;99.90
2625;DHT22;1322;53.256;10.386;2023-03-11T11:57:21;4.00;99.90
2625;DHT22;1322;53.256;10.386;2023-03-11T11:59:47;4.10;99.90
2625;DHT22;1322;53.256;10.386;2023-03-11T12:05:26;4.20;99.90
2625;DHT22;1322;53.256;10.386;2023-03-11T12:19:01;4.20;99.90
2625;DHT22;1322;53.256;10.386;2023-03-11T12:21:58;4.10;99.90
2625;DHT22;1322;53.256;10.386;2023-03-11T12:27:23;4.10;99.90
2625;DHT22;1322;53.256;10.386;2023-03-11T12:30:19;4.10;99.90
2625;DHT22;1322;53.256;10.386;2023-03-11T12:32:56;4.20;99.90
2625;DHT22;1322;53.256;10.386;2023-03-11T12:35:29;4.20;99.90
2625;DHT22;1322;53.256;10.386;2023-03-11T12:38:13;4.30;99.90
2625;DHT22;1322;53.256;10.386;2023-03-11T12:41:03;4.30;99.90
2625;DHT22;1322;53.256;10.386;2023-03-11T12:46:09;4.40;99.90
2625;DHT22;1322;53.256;10.386;2023-03-11T12:48:41;4.50;99.90
2625;DHT22;1322;53.256;10.386;2023-03-11T12:53:54;4.50;99.90
2625;DHT22;1322;53.256;10.386;2023-03-11T13:05:21;4.60;99.90
2625;DHT22;1322;53.256;10.386;2023-03-11T13:07:51;4.60;99.90
2625;DHT22;1322;53.256;10.386;2023-03-11T13:12:54;4.60;99.90
2625;DHT22;1322;53.256;10.386;2023-03-11T13:33:55;4.50;99.90
2625;DHT22;1322;53.256;10.386;2023-03-11T13:36:50;4.40;99.90
2625;DHT22;1322;53.256;10.386;2023-03-11T13:44:47;4.60;99.90
2625;DHT22;1322;53.256;10.386;2023-03-11T13:47:15;4.80;99.90
2625;DHT22;1322;53.256;10.386;2023-03-11T13:50:23;5.00;99.90
2625;DHT22;1322;53.256;10.386;2023-03-11T13:52:45;5.10;99.90
2625;DHT22;1322;53.256;10.386;2023-03-11T13:55:18;5.20;99.90
2625;DHT22;1322;53.256;10.386;2023-03-11T13:57:52;5.20;99.90
2625;DHT22;1322;53.256;10.386;2023-03-11T14:00:21;5.20;99.90
2625;DHT22;1322;53.256;10.386;2023-03-11T14:03:02;5.10;99.90
2625;DHT22;1322;53.256;10.386;2023-03-11T14:05:34;5.10;99.90
2625;DHT22;1322;53.256;10.386;2023-03-11T14:08:20;5.10;99.90
2625;DHT22;1322;53.256;10.386;2023-03-11T14:10:56;5.10;99.90
2625;DHT22;1322;53.256;10.386;2023-03-11T14:13:23;4.90;99.90
2625;DHT22;1322;53.256;10.386;2023-03-11T14:16:09;5.00;99.90
2625;DHT22;1322;53.256;10.386;2023-03-11T14:18:41;5.10;99.90
2625;DHT22;1322;53.256;10.386;2023-03-11T14:21:18;5.20;99.90
2625;DHT22;1322;53.256;10.386;2023-03-11T14:23:46;5.20;99.90
2625;DHT22;1322;53.256;10.386;2023-03-11T14:26:16;5.20;99.90
2625;DHT22;1322;53.256;10.386;2023-03-11T14:28:45;5.20;99.90
2625;DHT22;1322;53.256;10.386;2023-03-11T14:31:33;5.20;99.90
2625;DHT22;1322;53.256;10.386;2023-03-11T14:34:01;5.30;99.90
2625;DHT22;1322;53.256;10.386;2023-03-11T14:36:49;5.20;99.90
2625;DHT22;1322;53.256;10.386;2023-03-11T14:39:37;5.30;99.90
2625;DHT22;1322;53.256;10.386;2023-03-11T14:45:29;5.50;99.90
2625;DHT22;1322;53.256;10.386;2023-03-11T14:49:55;5.40;99.90
2625;DHT22;1322;53.256;10.386;2023-03-11T14:52:32;5.30;99.90
2625;DHT22;1322;53.256;10.386;2023-03-11T14:54:59;5.30;99.90
2625;DHT22;1322;53.256;10.386;2023-03-11T15:00:02;5.30;99.90
2625;DHT22;1322;53.256;10.386;2023-03-11T15:03:03;5.30;99.90
2625;DHT22;1322;53.256;10.386;2023-03-11T15:05:49;5.30;99.90
2625;DHT22;1322;53.256;10.386;2023-03-11T15:08:20;5.30;99.90
2625;DHT22;1322;53.256;10.386;2023-03-11T15:13:41;5.20;99.90
2625;DHT22;1322;53.256;10.386;2023-03-11T15:18:47;5.10;99.90
2625;DHT22;1322;53.256;10.386;2023-03-11T15:21:23;5.00;99.90
2625;DHT22;1322;53.256;10.386;2023-03-11T15:26:27;5.00;99.90
2625;DHT22;1322;53.256;10.386;2023-03-11T15:31:29;5.00;99.90
2625;DHT22;1322;53.256;10.386;2023-03-11T15:36:36;5.00;99.90
2625;DHT22;1322;53.256;10.386;2023-03-11T15:39:18;5.00;99.90
2625;DHT22;1322;53.256;10.386;2023-03-11T15:41:58;5.00;99.90
2625;DHT22;1322;53.256;10.386;2023-03-11T15:47:24;4.90;99.90
2625;DHT22;1322;53.256;10.386;2023-03-11T15:49:50;4.90;99.90
2625;DHT22;1322;53.256;10.386;2023-03-11T15:52:16;4.90;99.90
2625;DHT22;1322;53.256;10.386;2023-03-11T15:54:44;4.90;99.90
2625;DHT22;1322;53.256;10.386;2023-03-11T15:57:21;4.90;99.90
2625;DHT22;1322;53.256;10.386;2023-03-11T15:59:49;4.80;99.90
2625;DHT22;1322;53.256;10.386;2023-03-11T16:02:24;4.70;99.90
2625;DHT22;1322;53.256;10.386;2023-03-11T16:04:50;4.70;99.90
2625;DHT22;1322;53.256;10.386;2023-03-11T16:07:17;4.70;99.90
2625;DHT22;1322;53.256;10.386;2023-03-11T16:09:42;4.70;99.90
2625;DHT22;1322;53.256;10.386;2023-03-11T16:12:15;4.60;99.90
2625;DHT22;1322;53.256;10.386;2023-03-11T16:14:42;4.60;99.90
2625;DHT22;1322;53.256;10.386;2023-03-11T16:17:08;4.60;99.90
2625;DHT22;1322;53.256;10.386;2023-03-11T16:19:34;4.60;99.90
2625;DHT22;1322;53.256;10.386;2023-03-11T16:22:03;4.60;99.90
2625;DHT22;1322;53.256;10.386;2023-03-11T16:24:29;4.60;99.90
2625;DHT22;1322;53.256;10.386;2023-03-11T16:26:55;4.70;99.90
2625;DHT22;1322;53.256;10.386;2023-03-11T16:29:21;4.70;99.90
2625;DHT22;1322;53.256;10.386;2023-03-11T16:31:48;4.60;99.90
2625;DHT22;1322;53.256;10.386;2023-03-11T16:34:14;4.60;99.90
2625;DHT22;1322;53.256;10.386;2023-03-11T16:36:39;4.60;99.90
2625;DHT22;1322;53.256;10.386;2023-03-11T16:39:05;4.60;99.90
2625;DHT22;1322;53.256;10.386;2023-03-11T16:41:42;4.60;99.90
2625;DHT22;1322;53.256;10.386;2023-03-11T16:44:08;4.70;99.90
2625;DHT22;1322;53.256;10.386;2023-03-11T16:46:34;4.70;99.90
2625;DHT22;1322;53.256;10.386;2023-03-11T16:49:00;4.80;99.90
2625;DHT22;1322;53.256;10.386;2023-03-11T16:51:26;4.80;99.90
2625;DHT22;1322;53.256;10.386;2023-03-11T16:53:52;4.90;99.90
2625;DHT22;1322;53.256;10.386;2023-03-11T16:56:17;4.90;99.90
2625;DHT22;1322;53.256;10.386;2023-03-11T16:58:43;4.90;99.90
2625;DHT22;1322;53.256;10.386;2023-03-11T17:01:12;4.90;99.90
2625;DHT22;1322;53.256;10.386;2023-03-11T17:03:38;4.70;99.90
2625;DHT22;1322;53.256;10.386;2023-03-11T17:06:04;4.60;99.90
2625;DHT22;1322;53.256;10.386;2023-03-11T17:08:30;4.50;99.90
2625;DHT22;1322;53.256;10.386;2023-03-11T17:10:56;4.40;99.90
2625;DHT22;1322;53.256;10.386;2023-03-11T17:13:22;4.40;99.90
2625;DHT22;1322;53.256;10.386;2023-03-11T17:15:58;4.30;99.90
2625;DHT22;1322;53.256;10.386;2023-03-11T17:18:25;4.30;99.90
2625;DHT22;1322;53.256;10.386;2023-03-11T17:20:51;4.30;99.90
2625;DHT22;1322;53.256;10.386;2023-03-11T17:23:16;4.30;99.90
2625;DHT22;1322;53.256;10.386;2023-03-11T17:25:42;4.30;99.90
2625;DHT22;1322;53.256;10.386;2023-03-11T17:28:08;4.30;99.90
2625;DHT22;1322;53.256;10.386;2023-03-11T17:30:34;4.30;99.90
2625;DHT22;1322;53.256;10.386;2023-03-11T17:32:59;4.30;99.90
2625;DHT22;1322;53.256;10.386;2023-03-11T17:35:25;4.40;99.90
2625;DHT22;1322;53.256;10.386;2023-03-11T17:37:50;4.40;99.90
2625;DHT22;1322;53.256;10.386;2023-03-11T17:40:16;4.50;99.90
2625;DHT22;1322;53.256;10.386;2023-03-11T17:42:42;4.50;99.90
2625;DHT22;1322;53.256;10.386;2023-03-11T17:45:08;4.50;99.90
2625;DHT22;1322;53.256;10.386;2023-03-11T17:47:34;4.50;99.90
2625;DHT22;1322;53.256;10.386;2023-03-11T17:50:02;4.40;99.90
2625;DHT22;1322;53.256;10.386;2023-03-11T17:52:28;4.30;99.90
2625;DHT22;1322;53.256;10.386;2023-03-11T17:54:53;4.30;99.90
2625;DHT22;1322;53.256;10.386;2023-03-11T17:57:21;4.20;99.90
2625;DHT22;1322;53.256;10.386;2023-03-11T17:59:49;4.20;99.90
2625;DHT22;1322;53.256;10.386;2023-03-11T18:02:15;4.10;99.90
2625;DHT22;1322;53.256;10.386;2023-03-11T18:04:41;4.00;99.90
2625;DHT22;1322;53.256;10.386;2023-03-11T18:07:10;3.90;99.90
2625;DHT22;1322;53.256;10.386;2023-03-11T18:09:36;3.90;99.90
2625;DHT22;1322;53.256;10.386;2023-03-11T18:12:02;3.90;99.90
2625;DHT22;1322;53.256;10.386;2023-03-11T18:14:28;3.90;99.90